sensor_id;sensor_type;location;lat;lon;timestamp;pressure;altitude;pressure_sealevel;temperature;humidity
45129;BME280;35512;56.312;101.728;2023-03-19T03:48:20;95084.47;;;24.75;18.56
45129;BME280;35512;56.312;101.728;2023-03-19T03:50:51;95078.38;;;25.03;18.46
45129;BME280;35512;56.312;101.728;2023-03-19T03:53:25;95077.91;;;25.37;18.53
45129;BME280;35512;56.312;101.728;2023-03-19T03:55:55;95078.25;;;25.56;18.36
45129;BME280;35512;56.312;101.728;2023-03-19T03:58:26;95058.53;;;25.86;18.01
45129;BME280;35512;56.312;101.728;2023-03-19T04:00:55;95063.03;;;25.77;17.29
45129;BME280;35512;56.312;101.728;2023-03-19T04:03:25;95052.16;;;25.62;17.07
45129;BME280;35512;56.312;101.728;2023-03-19T04:05:54;95049.72;;;25.87;17.03
45129;BME280;35512;56.312;101.728;2023-03-19T04:08:24;95042.50;;;26.07;16.85
45129;BME280;35512;56.312;101.728;2023-03-19T04:10:52;95039.50;;;26.10;16.70
45129;BME280;35512;56.312;101.728;2023-03-19T04:13:22;95027.72;;;26.32;16.65
45129;BME280;35512;56.312;101.728;2023-03-19T04:15:52;95027.25;;;26.57;16.14
45129;BME280;35512;56.312;101.728;2023-03-19T04:18:23;95025.50;;;26.54;15.91
45129;BME280;35512;56.312;101.728;2023-03-19T04:20:53;95014.41;;;26.54;15.84
45129;BME280;35512;56.312;101.728;2023-03-19T04:23:23;95002.06;;;26.49;15.39
45129;BME280;35512;56.312;101.728;2023-03-19T04:26:00;95001.19;;;25.86;15.42
45129;BME280;35512;56.312;101.728;2023-03-19T04:28:31;95008.75;;;25.80;15.66
45129;BME280;35512;56.312;101.728;2023-03-19T04:31:05;94992.69;;;25.95;15.34
45129;BME280;35512;56.312;101.728;2023-03-19T04:33:39;94980.06;;;25.72;15.08
45129;BME280;35512;56.312;101.728;2023-03-19T04:36:08;94975.53;;;24.71;14.73
45129;BME280;35512;56.312;101.728;2023-03-19T04:38:38;94986.31;;;24.42;15.24
45129;BME280;35512;56.312;101.728;2023-03-19T04:41:07;94982.94;;;24.59;15.02
45129;BME280;35512;56.312;101.728;2023-03-19T04:43:42;94969.94;;;25.03;15.34
45129;BME280;35512;56.312;101.728;2023-03-19T04:46:11;94972.16;;;25.42;15.14
45129;BME280;35512;56.312;101.728;2023-03-19T04:48:40;94955.22;;;25.17;14.90
45129;BME280;35512;56.312;101.728;2023-03-19T04:51:10;94967.94;;;25.52;15.09
45129;BME280;35512;56.312;101.728;2023-03-19T04:53:40;94962.16;;;25.56;14.48
45129;BME280;35512;56.312;101.728;2023-03-19T04:56:10;94953.72;;;25.22;14.70
45129;BME280;35512;56.312;101.728;2023-03-19T04:58:39;94949.41;;;25.15;14.85
45129;BME280;35512;56.312;101.728;2023-03-19T05:01:10;94952.81;;;24.93;14.60
45129;BME280;35512;56.312;101.728;2023-03-19T05:04:13;94940.22;;;24.48;15.06
45129;BME280;35512;56.312;101.728;2023-03-19T05:06:43;94937.66;;;24.77;14.77
45129;BME280;35512;56.312;101.728;2023-03-19T05:09:12;94934.66;;;24.43;14.70
45129;BME280;35512;56.312;101.728;2023-03-19T05:11:43;94932.22;;;24.19;14.73
45129;BME280;35512;56.312;101.728;2023-03-19T05:14:18;94916.06;;;24.06;14.76
45129;BME280;35512;56.312;101.728;2023-03-19T05:17:03;94919.84;;;24.40;14.72
45129;BME280;35512;56.312;101.728;2023-03-19T05:19:44;94913.19;;;23.89;14.78
45129;BME280;35512;56.312;101.728;2023-03-19T05:22:14;94910.38;;;24.15;14.81
45129;BME280;35512;56.312;101.728;2023-03-19T05:24:43;94924.88;;;24.10;14.63
45129;BME280;35512;56.312;101.728;2023-03-19T05:27:13;94916.16;;;24.17;14.77
45129;BME280;35512;56.312;101.728;2023-03-19T05:29:59;94917.84;;;24.78;14.63
45129;BME280;35512;56.312;101.728;2023-03-19T05:32:47;94907.47;;;25.11;14.40
45129;BME280;35512;56.312;101.728;2023-03-19T05:35:27;94907.75;;;25.13;14.32
45129;BME280;35512;56.312;101.728;2023-03-19T05:37:57;94910.09;;;24.83;14.01
45129;BME280;35512;56.312;101.728;2023-03-19T05:40:27;94890.31;;;24.52;14.34
45129;BME280;35512;56.312;101.728;2023-03-19T05:42:58;94896.25;;;24.71;14.60
45129;BME280;35512;56.312;101.728;2023-03-19T05:45:29;94893.91;;;25.07;14.32
45129;BME280;35512;56.312;101.728;2023-03-19T05:48:04;94891.25;;;25.36;14.13
45129;BME280;35512;56.312;101.728;2023-03-19T05:50:39;94894.09;;;25.58;14.13
45129;BME280;35512;56.312;101.728;2023-03-19T05:53:20;94883.53;;;25.51;13.96
45129;BME280;35512;56.312;101.728;2023-03-19T05:56:10;94888.53;;;25.47;14.11
45129;BME280;35512;56.312;101.728;2023-03-19T05:58:52;94872.88;;;25.27;13.94
45129;BME280;35512;56.312;101.728;2023-03-19T06:01:26;94872.63;;;25.25;14.26
45129;BME280;35512;56.312;101.728;2023-03-19T06:03:56;94863.91;;;25.38;14.14
45129;BME280;35512;56.312;101.728;2023-03-19T06:06:27;94867.97;;;25.71;14.15
45129;BME280;35512;56.312;101.728;2023-03-19T06:08:56;94852.66;;;26.15;13.97
45129;BME280;35512;56.312;101.728;2023-03-19T06:11:37;94855.44;;;26.21;13.81
45129;BME280;35512;56.312;101.728;2023-03-19T06:14:27;94860.44;;;25.99;13.70
45129;BME280;35512;56.312;101.728;2023-03-19T06:17:15;94849.41;;;26.22;13.57
45129;BME280;35512;56.312;101.728;2023-03-19T06:19:46;94847.09;;;26.43;13.69
45129;BME280;35512;56.312;101.728;2023-03-19T06:22:15;94853.63;;;26.52;13.68
45129;BME280;35512;56.312;101.728;2023-03-19T06:24:45;94846.38;;;26.37;13.60
45129;BME280;35512;56.312;101.728;2023-03-19T06:27:14;94839.84;;;26.29;13.43
45129;BME280;35512;56.312;101.728;2023-03-19T06:29:43;94833.03;;;26.30;13.25
45129;BME280;35512;56.312;101.728;2023-03-19T06:32:18;94830.72;;;26.57;13.37
45129;BME280;35512;56.312;101.728;2023-03-19T06:34:49;94811.25;;;26.91;13.45
45129;BME280;35512;56.312;101.728;2023-03-19T06:37:19;94809.41;;;27.52;13.09
45129;BME280;35512;56.312;101.728;2023-03-19T06:39:48;94803.66;;;27.50;12.85
45129;BME280;35512;56.312;101.728;2023-03-19T06:42:18;94819.00;;;27.51;12.80
45129;BME280;35512;56.312;101.728;2023-03-19T06:44:47;94814.44;;;27.54;12.83
45129;BME280;35512;56.312;101.728;2023-03-19T06:47:20;94811.06;;;27.25;12.97
45129;BME280;35512;56.312;101.728;2023-03-19T06:49:49;94802.88;;;27.02;12.84
45129;BME280;35512;56.312;101.728;2023-03-19T06:52:19;94803.69;;;26.97;12.75
45129;BME280;35512;56.312;101.728;2023-03-19T06:54:48;94801.56;;;26.44;12.75
45129;BME280;35512;56.312;101.728;2023-03-19T06:57:16;94794.53;;;26.43;12.72
45129;BME280;35512;56.312;101.728;2023-03-19T06:59:45;94788.75;;;26.41;12.89
45129;BME280;35512;56.312;101.728;2023-03-19T07:02:14;94790.16;;;26.82;13.40
45129;BME280;35512;56.312;101.728;2023-03-19T07:04:44;94791.53;;;27.06;12.84
45129;BME280;35512;56.312;101.728;2023-03-19T07:07:13;94774.56;;;27.21;12.95
45129;BME280;35512;56.312;101.728;2023-03-19T07:09:42;94770.19;;;27.42;12.84
45129;BME280;35512;56.312;101.728;2023-03-19T07:12:11;94780.34;;;27.23;12.30
45129;BME280;35512;56.312;101.728;2023-03-19T07:14:41;94773.91;;;27.03;12.90
45129;BME280;35512;56.312;101.728;2023-03-19T07:17:10;94764.56;;;27.06;12.45
45129;BME280;35512;56.312;101.728;2023-03-19T07:19:38;94763.88;;;27.00;12.46
45129;BME280;35512;56.312;101.728;2023-03-19T07:22:07;94763.75;;;26.75;12.52
45129;BME280;35512;56.312;101.728;2023-03-19T07:24:36;94756.47;;;26.61;12.64
45129;BME280;35512;56.312;101.728;2023-03-19T07:27:05;94757.41;;;26.80;12.75
45129;BME280;35512;56.312;101.728;2023-03-19T07:29:35;94766.78;;;26.72;12.78
45129;BME280;35512;56.312;101.728;2023-03-19T07:32:04;94745.06;;;26.00;12.61
45129;BME280;35512;56.312;101.728;2023-03-19T07:34:33;94749.09;;;25.82;12.92
45129;BME280;35512;56.312;101.728;2023-03-19T07:37:04;94748.84;;;25.86;12.71
45129;BME280;35512;56.312;101.728;2023-03-19T07:39:35;94767.19;;;25.83;13.03
45129;BME280;35512;56.312;101.728;2023-03-19T07:42:04;94744.56;;;25.90;12.85
45129;BME280;35512;56.312;101.728;2023-03-19T07:44:33;94743.47;;;26.39;13.02
45129;BME280;35512;56.312;101.728;2023-03-19T07:47:02;94740.47;;;26.31;12.32
45129;BME280;35512;56.312;101.728;2023-03-19T07:49:31;94737.06;;;25.57;12.78
45129;BME280;35512;56.312;101.728;2023-03-19T07:52:00;94729.47;;;25.23;13.07
45129;BME280;35512;56.312;101.728;2023-03-19T07:54:29;94742.06;;;25.41;12.98
45129;BME280;35512;56.312;101.728;2023-03-19T07:56:59;94729.47;;;25.29;13.09
45129;BME280;35512;56.312;101.728;2023-03-19T07:59:29;94732.75;;;25.16;13.18
45129;BME280;35512;56.312;101.728;2023-03-19T08:01:58;94722.66;;;24.85;13.16
45129;BME280;35512;56.312;101.728;2023-03-19T08:04:27;94714.75;;;24.49;13.33
45129;BME280;35512;56.312;101.728;2023-03-19T08:06:57;94718.28;;;24.01;13.40
45129;BME280;35512;56.312;101.728;2023-03-19T08:09:25;94712.63;;;23.78;13.60
45129;BME280;35512;56.312;101.728;2023-03-19T08:11:55;94715.06;;;23.70;13.82
45129;BME280;35512;56.312;101.728;2023-03-19T08:14:24;94710.72;;;23.58;13.73
45129;BME280;35512;56.312;101.728;2023-03-19T08:16:53;94715.53;;;23.31;13.85
45129;BME280;35512;56.312;101.728;2023-03-19T08:19:22;94719.09;;;23.37;13.90
45129;BME280;35512;56.312;101.728;2023-03-19T08:21:51;94707.53;;;23.33;13.86
45129;BME280;35512;56.312;101.728;2023-03-19T08:24:19;94699.91;;;23.17;13.88
45129;BME280;35512;56.312;101.728;2023-03-19T08:26:49;94701.00;;;23.04;14.17
45129;BME280;35512;56.312;101.728;2023-03-19T08:29:18;94686.75;;;22.79;14.13
45129;BME280;35512;56.312;101.728;2023-03-19T08:31:47;94685.63;;;22.66;14.48
45129;BME280;35512;56.312;101.728;2023-03-19T08:34:15;94675.97;;;22.50;14.38
45129;BME280;35512;56.312;101.728;2023-03-19T08:36:44;94685.03;;;22.56;14.43
45129;BME280;35512;56.312;101.728;2023-03-19T08:39:14;94677.59;;;22.41;14.29
45129;BME280;35512;56.312;101.728;2023-03-19T08:41:43;94674.84;;;22.00;14.29
45129;BME280;35512;56.312;101.728;2023-03-19T08:44:11;94664.31;;;21.42;14.31
45129;BME280;35512;56.312;101.728;2023-03-19T08:46:41;94664.59;;;20.55;14.40
45129;BME280;35512;56.312;101.728;2023-03-19T08:49:10;94665.03;;;19.41;15.02
45129;BME280;35512;56.312;101.728;2023-03-19T08:51:39;94659.50;;;17.50;16.02
45129;BME280;35512;56.312;101.728;2023-03-19T08:54:08;94664.97;;;15.99;17.10
45129;BME280;35512;56.312;101.728;2023-03-19T08:56:39;94660.72;;;14.98;17.74
45129;BME280;35512;56.312;101.728;2023-03-19T08:59:07;94647.69;;;14.22;18.28
45129;BME280;35512;56.312;101.728;2023-03-19T09:01:37;94645.09;;;13.72;18.38
45129;BME280;35512;56.312;101.728;2023-03-19T09:04:07;94647.50;;;13.37;19.17
45129;BME280;35512;56.312;101.728;2023-03-19T09:06:36;94653.81;;;13.14;19.35
45129;BME280;35512;56.312;101.728;2023-03-19T09:09:05;94655.66;;;13.00;19.11
45129;BME280;35512;56.312;101.728;2023-03-19T09:11:35;94638.41;;;12.74;19.43
45129;BME280;35512;56.312;101.728;2023-03-19T09:14:04;94640.66;;;12.59;19.65
45129;BME280;35512;56.312;101.728;2023-03-19T09:16:33;94642.28;;;12.37;20.33
45129;BME280;35512;56.312;101.728;2023-03-19T09:19:02;94632.31;;;12.13;20.11
45129;BME280;35512;56.312;101.728;2023-03-19T09:21:31;94635.13;;;12.06;20.57
45129;BME280;35512;56.312;101.728;2023-03-19T09:24:03;94631.84;;;11.95;20.58
45129;BME280;35512;56.312;101.728;2023-03-19T09:26:34;94629.44;;;11.77;20.94
45129;BME280;35512;56.312;101.728;2023-03-19T09:29:03;94628.06;;;11.69;21.15
45129;BME280;35512;56.312;101.728;2023-03-19T09:31:32;94611.22;;;11.57;21.03
45129;BME280;35512;56.312;101.728;2023-03-19T09:34:01;94628.94;;;11.62;21.25
45129;BME280;35512;56.312;101.728;2023-03-19T09:36:30;94614.47;;;11.48;21.67
45129;BME280;35512;56.312;101.728;2023-03-19T09:38:59;94599.56;;;11.40;22.09
45129;BME280;35512;56.312;101.728;2023-03-19T09:41:44;94612.19;;;11.23;21.63
45129;BME280;35512;56.312;101.728;2023-03-19T09:50:02;94602.63;;;10.91;22.24
45129;BME280;35512;56.312;101.728;2023-03-19T09:55:33;94604.47;;;10.71;22.81
45129;BME280;35512;56.312;101.728;2023-03-19T09:58:29;94607.31;;;10.60;22.55
45129;BME280;35512;56.312;101.728;2023-03-19T10:01:01;94603.50;;;10.57;22.61
45129;BME280;35512;56.312;101.728;2023-03-19T10:06:13;94602.06;;;10.49;22.66
45129;BME280;35512;56.312;101.728;2023-03-19T10:17:49;94591.19;;;10.25;22.90
45129;BME280;35512;56.312;101.728;2023-03-19T10:25:58;94597.13;;;10.09;23.37
45129;BME280;35512;56.312;101.728;2023-03-19T10:28:29;94599.16;;;10.02;23.76
45129;BME280;35512;56.312;101.728;2023-03-19T10:36:41;94589.50;;;9.70;23.92
45129;BME280;35512;56.312;101.728;2023-03-19T10:39:10;94585.75;;;9.60;24.27
45129;BME280;35512;56.312;101.728;2023-03-19T10:41:49;94588.13;;;9.51;24.04
45129;BME280;35512;56.312;101.728;2023-03-19T10:44:34;94577.47;;;9.36;24.02
45129;BME280;35512;56.312;101.728;2023-03-19T10:47:14;94583.69;;;9.29;24.47
45129;BME280;35512;56.312;101.728;2023-03-19T10:49:44;94586.06;;;9.24;24.46
45129;BME280;35512;56.312;101.728;2023-03-19T10:55:13;94578.56;;;8.97;24.72
45129;BME280;35512;56.312;101.728;2023-03-19T10:57:43;94586.75;;;8.86;24.64
45129;BME280;35512;56.312;101.728;2023-03-19T11:00:23;94583.41;;;8.71;24.87
45129;BME280;35512;56.312;101.728;2023-03-19T11:02:55;94581.16;;;8.59;24.86
45129;BME280;35512;56.312;101.728;2023-03-19T11:05:26;94592.75;;;8.45;24.57
45129;BME280;35512;56.312;101.728;2023-03-19T11:08:04;94584.34;;;8.32;25.00
45129;BME280;35512;56.312;101.728;2023-03-19T11:10:36;94577.13;;;8.18;25.40
45129;BME280;35512;56.312;101.728;2023-03-19T11:15:46;94586.06;;;7.93;25.08
45129;BME280;35512;56.312;101.728;2023-03-19T11:18:22;94575.75;;;7.74;25.22
45129;BME280;35512;56.312;101.728;2023-03-19T11:20:58;94582.28;;;7.66;25.26
45129;BME280;35512;56.312;101.728;2023-03-19T11:23:30;94583.09;;;7.55;25.17
45129;BME280;35512;56.312;101.728;2023-03-19T11:26:05;94580.06;;;7.46;25.59
45129;BME280;35512;56.312;101.728;2023-03-19T11:28:36;94588.13;;;7.35;24.96
45129;BME280;35512;56.312;101.728;2023-03-19T11:39:27;94581.63;;;6.93;25.85
45129;BME280;35512;56.312;101.728;2023-03-19T11:42:35;94579.31;;;6.84;25.67
45129;BME280;35512;56.312;101.728;2023-03-19T11:51:05;94582.75;;;6.63;25.66
45129;BME280;35512;56.312;101.728;2023-03-19T11:53:54;94585.78;;;6.54;25.74
45129;BME280;35512;56.312;101.728;2023-03-19T11:56:31;94580.81;;;6.46;26.37
45129;BME280;35512;56.312;101.728;2023-03-19T11:59:40;94588.06;;;6.34;25.90
45129;BME280;35512;56.312;101.728;2023-03-19T12:02:36;94573.47;;;6.21;26.20
45129;BME280;35512;56.312;101.728;2023-03-19T12:05:19;94587.25;;;6.19;26.33
45129;BME280;35512;56.312;101.728;2023-03-19T12:10:58;94574.19;;;6.11;26.62
45129;BME280;35512;56.312;101.728;2023-03-19T12:22:13;94562.63;;;5.88;26.82
45129;BME280;35512;56.312;101.728;2023-03-19T12:28:02;94574.38;;;5.66;27.05
45129;BME280;35512;56.312;101.728;2023-03-19T12:30:48;94574.69;;;5.50;27.00
45129;BME280;35512;56.312;101.728;2023-03-19T12:36:36;94569.94;;;5.21;27.81
45129;BME280;35512;56.312;101.728;2023-03-19T12:39:21;94561.78;;;5.07;27.41
45129;BME280;35512;56.312;101.728;2023-03-19T12:41:53;94563.25;;;4.97;27.81
45129;BME280;35512;56.312;101.728;2023-03-19T12:44:45;94568.16;;;4.88;28.13
45129;BME280;35512;56.312;101.728;2023-03-19T12:47:27;94557.41;;;4.81;28.55
45129;BME280;35512;56.312;101.728;2023-03-19T12:50:03;94560.41;;;4.76;28.36
45129;BME280;35512;56.312;101.728;2023-03-19T12:52:39;94556.94;;;4.68;28.84
45129;BME280;35512;56.312;101.728;2023-03-19T12:55:14;94547.72;;;4.62;28.72
45129;BME280;35512;56.312;101.728;2023-03-19T12:58:15;94546.16;;;4.57;28.87
45129;BME280;35512;56.312;101.728;2023-03-19T13:01:08;94549.16;;;4.52;29.07
45129;BME280;35512;56.312;101.728;2023-03-19T13:03:42;94547.19;;;4.45;28.97
45129;BME280;35512;56.312;101.728;2023-03-19T13:06:20;94549.06;;;4.41;29.19
45129;BME280;35512;56.312;101.728;2023-03-19T13:12:21;94548.94;;;4.30;29.38
45129;BME280;35512;56.312;101.728;2023-03-19T13:14:31;94546.97;;;4.23;29.41
45129;BME280;35512;56.312;101.728;2023-03-19T13:17:07;94543.13;;;4.21;29.61
45129;BME280;35512;56.312;101.728;2023-03-19T13:19:48;94541.19;;;4.18;29.88
45129;BME280;35512;56.312;101.728;2023-03-19T13:22:31;94540.78;;;4.16;29.85
45129;BME280;35512;56.312;101.728;2023-03-19T13:25:02;94545.00;;;4.17;30.20
45129;BME280;35512;56.312;101.728;2023-03-19T13:27:34;94540.44;;;4.17;30.53
45129;BME280;35512;56.312;101.728;2023-03-19T13:30:16;94540.06;;;4.19;30.31
45129;BME280;35512;56.312;101.728;2023-03-19T13:32:48;94533.69;;;4.31;30.39
45129;BME280;35512;56.312;101.728;2023-03-19T13:40:48;94539.34;;;4.67;30.25
45129;BME280;35512;56.312;101.728;2023-03-19T13:48:52;94524.84;;;4.68;30.08
45129;BME280;35512;56.312;101.728;2023-03-19T13:51:23;94530.19;;;4.68;30.65
45129;BME280;35512;56.312;101.728;2023-03-19T13:59:38;94523.72;;;4.72;30.78
45129;BME280;35512;56.312;101.728;2023-03-19T14:05:06;94525.41;;;4.91;30.52
45129;BME280;35512;56.312;101.728;2023-03-19T14:07:39;94519.75;;;5.04;30.26
45129;BME280;35512;56.312;101.728;2023-03-19T14:10:27;94517.53;;;5.17;30.52
45129;BME280;35512;56.312;101.728;2023-03-19T14:16:37;94508.09;;;5.37;30.34
45129;BME280;35512;56.312;101.728;2023-03-19T14:19:14;94507.72;;;5.46;29.94
45129;BME280;35512;56.312;101.728;2023-03-19T14:27:28;94492.06;;;5.45;30.37
45129;BME280;35512;56.312;101.728;2023-03-19T14:30:07;94498.19;;;5.49;29.92
45129;BME280;35512;56.312;101.728;2023-03-19T14:32:39;94493.59;;;5.49;30.39
45129;BME280;35512;56.312;101.728;2023-03-19T14:35:15;94490.53;;;5.47;30.32
45129;BME280;35512;56.312;101.728;2023-03-19T14:37:50;94487.47;;;5.49;29.99
45129;BME280;35512;56.312;101.728;2023-03-19T14:43:10;94484.81;;;5.52;30.24
45129;BME280;35512;56.312;101.728;2023-03-19T14:46:00;94477.16;;;5.54;30.26
45129;BME280;35512;56.312;101.728;2023-03-19T14:56:48;94473.34;;;5.55;29.84
45129;BME280;35512;56.312;101.728;2023-03-19T14:59:18;94471.84;;;5.62;30.19
45129;BME280;35512;56.312;101.728;2023-03-19T15:01:50;94479.91;;;5.69;30.09
45129;BME280;35512;56.312;101.728;2023-03-19T15:04:22;94477.66;;;5.78;30.27
45129;BME280;35512;56.312;101.728;2023-03-19T15:06:58;94480.31;;;5.82;30.12
45129;BME280;35512;56.312;101.728;2023-03-19T15:09:31;94483.69;;;5.64;29.80
45129;BME280;35512;56.312;101.728;2023-03-19T15:12:28;94477.84;;;5.37;30.68
45129;BME280;35512;56.312;101.728;2023-03-19T15:18:10;94472.84;;;5.24;30.52
45129;BME280;35512;56.312;101.728;2023-03-19T15:20:45;94480.88;;;5.28;30.80
45129;BME280;35512;56.312;101.728;2023-03-19T15:23:19;94487.41;;;5.34;30.65
45129;BME280;35512;56.312;101.728;2023-03-19T15:25:57;94485.50;;;5.35;30.75
45129;BME280;35512;56.312;101.728;2023-03-19T15:28:43;94479.75;;;5.33;31.07
45129;BME280;35512;56.312;101.728;2023-03-19T15:31:13;94478.63;;;5.34;30.87
45129;BME280;35512;56.312;101.728;2023-03-19T15:33:59;94479.03;;;5.36;30.95
45129;BME280;35512;56.312;101.728;2023-03-19T15:36:32;94472.50;;;5.37;30.81
45129;BME280;35512;56.312;101.728;2023-03-19T15:39:03;94478.66;;;5.45;30.60
45129;BME280;35512;56.312;101.728;2023-03-19T15:41:38;94467.97;;;5.45;30.90
45129;BME280;35512;56.312;101.728;2023-03-19T15:44:15;94470.28;;;5.50;31.12
45129;BME280;35512;56.312;101.728;2023-03-19T15:46:46;94464.91;;;5.53;30.94
45129;BME280;35512;56.312;101.728;2023-03-19T15:49:22;94456.53;;;5.58;30.53
45129;BME280;35512;56.312;101.728;2023-03-19T15:51:57;94463.81;;;5.65;30.83
45129;BME280;35512;56.312;101.728;2023-03-19T15:54:31;94456.56;;;5.69;30.61
45129;BME280;35512;56.312;101.728;2023-03-19T15:57:01;94451.22;;;5.73;30.28
45129;BME280;35512;56.312;101.728;2023-03-19T15:59:30;94448.19;;;5.78;30.56
45129;BME280;35512;56.312;101.728;2023-03-19T16:02:02;94449.31;;;5.81;30.49
45129;BME280;35512;56.312;101.728;2023-03-19T16:04:37;94437.84;;;5.80;29.94
45129;BME280;35512;56.312;101.728;2023-03-19T16:07:38;94437.47;;;5.78;30.76
45129;BME280;35512;56.312;101.728;2023-03-19T16:10:41;94432.47;;;5.76;30.19
45129;BME280;35512;56.312;101.728;2023-03-19T16:13:37;94428.28;;;5.75;30.21
45129;BME280;35512;56.312;101.728;2023-03-19T16:16:19;94436.69;;;5.74;30.13
45129;BME280;35512;56.312;101.728;2023-03-19T16:18:53;94429.75;;;5.66;30.22
45129;BME280;35512;56.312;101.728;2023-03-19T16:21:36;94431.28;;;5.59;30.28
45129;BME280;35512;56.312;101.728;2023-03-19T16:24:20;94429.00;;;5.62;29.96
45129;BME280;35512;56.312;101.728;2023-03-19T16:26:56;94431.72;;;5.69;29.75
45129;BME280;35512;56.312;101.728;2023-03-19T16:29:33;94421.75;;;5.73;30.33
45129;BME280;35512;56.312;101.728;2023-03-19T16:32:25;94411.06;;;5.80;30.58
45129;BME280;35512;56.312;101.728;2023-03-19T16:35:08;94415.69;;;5.90;30.25
45129;BME280;35512;56.312;101.728;2023-03-19T16:37:42;94408.03;;;5.96;30.28
45129;BME280;35512;56.312;101.728;2023-03-19T16:47:48;94391.56;;;5.94;29.97
45129;BME280;35512;56.312;101.728;2023-03-19T16:50:20;94393.09;;;5.95;30.46
45129;BME280;35512;56.312;101.728;2023-03-19T16:52:49;94375.47;;;5.83;30.38
45129;BME280;35512;56.312;101.728;2023-03-19T16:55:22;94388.13;;;5.93;30.17
45129;BME280;35512;56.312;101.728;2023-03-19T16:57:56;94402.69;;;6.11;30.27
45129;BME280;35512;56.312;101.728;2023-03-19T17:00:28;94389.31;;;6.14;30.43
45129;BME280;35512;56.312;101.728;2023-03-19T17:02:59;94380.50;;;6.10;30.54
45129;BME280;35512;56.312;101.728;2023-03-19T17:05:29;94388.56;;;6.14;30.57
45129;BME280;35512;56.312;101.728;2023-03-19T17:07:59;94388.94;;;6.08;30.84
45129;BME280;35512;56.312;101.728;2023-03-19T17:10:28;94376.28;;;5.98;30.79
45129;BME280;35512;56.312;101.728;2023-03-19T17:12:59;94389.25;;;5.92;31.04
45129;BME280;35512;56.312;101.728;2023-03-19T17:15:39;94371.25;;;5.71;31.19
45129;BME280;35512;56.312;101.728;2023-03-19T17:18:18;94390.38;;;5.73;31.18
45129;BME280;35512;56.312;101.728;2023-03-19T17:21:01;94370.84;;;5.44;31.51
45129;BME280;35512;56.312;101.728;2023-03-19T17:23:31;94393.38;;;5.47;31.45
45129;BME280;35512;56.312;101.728;2023-03-19T17:26:18;94375.75;;;5.31;31.92
45129;BME280;35512;56.312;101.728;2023-03-19T17:28:49;94372.69;;;5.25;31.60
45129;BME280;35512;56.312;101.728;2023-03-19T17:31:31;94388.38;;;5.34;31.78
45129;BME280;35512;56.312;101.728;2023-03-19T17:34:12;94383.03;;;5.34;31.82
45129;BME280;35512;56.312;101.728;2023-03-19T17:36:48;94380.38;;;5.38;32.23
45129;BME280;35512;56.312;101.728;2023-03-19T17:39:18;94387.66;;;5.45;31.92
45129;BME280;35512;56.312;101.728;2023-03-19T17:41:47;94381.53;;;5.44;31.85
45129;BME280;35512;56.312;101.728;2023-03-19T17:44:16;94382.69;;;5.43;32.10
45129;BME280;35512;56.312;101.728;2023-03-19T17:46:47;94390.72;;;5.43;32.08
45129;BME280;35512;56.312;101.728;2023-03-19T17:49:21;94394.16;;;5.40;31.86
45129;BME280;35512;56.312;101.728;2023-03-19T17:51:51;94395.28;;;5.39;31.97
45129;BME280;35512;56.312;101.728;2023-03-19T17:54:21;94392.97;;;5.34;31.96
45129;BME280;35512;56.312;101.728;2023-03-19T17:56:49;94389.13;;;5.31;31.91
45129;BME280;35512;56.312;101.728;2023-03-19T17:59:19;94396.81;;;5.40;32.23
45129;BME280;35512;56.312;101.728;2023-03-19T18:01:49;94405.59;;;5.37;31.97
45129;BME280;35512;56.312;101.728;2023-03-19T18:04:20;94406.75;;;5.36;32.63
45129;BME280;35512;56.312;101.728;2023-03-19T18:06:52;94400.63;;;5.32;32.63
45129;BME280;35512;56.312;101.728;2023-03-19T18:09:25;94405.94;;;5.28;32.44
45129;BME280;35512;56.312;101.728;2023-03-19T18:11:58;94408.97;;;5.19;32.36
45129;BME280;35512;56.312;101.728;2023-03-19T18:14:27;94416.97;;;5.12;32.40
45129;BME280;35512;56.312;101.728;2023-03-19T18:16:56;94416.53;;;5.03;32.62
45129;BME280;35512;56.312;101.728;2023-03-19T18:19:29;94417.69;;;4.98;32.37
45129;BME280;35512;56.312;101.728;2023-03-19T18:22:00;94419.94;;;4.93;32.64
45129;BME280;35512;56.312;101.728;2023-03-19T18:24:29;94420.31;;;4.91;32.34
45129;BME280;35512;56.312;101.728;2023-03-19T18:26:58;94424.88;;;4.87;32.96
45129;BME280;35512;56.312;101.728;2023-03-19T18:29:27;94435.91;;;4.78;33.22
45129;BME280;35512;56.312;101.728;2023-03-19T18:32:01;94431.91;;;4.54;33.45
45129;BME280;35512;56.312;101.728;2023-03-19T18:34:30;94440.94;;;4.31;33.63
45129;BME280;35512;56.312;101.728;2023-03-19T18:37:02;94448.03;;;4.09;34.75
45129;BME280;35512;56.312;101.728;2023-03-19T18:39:31;94453.53;;;3.86;34.96
45129;BME280;35512;56.312;101.728;2023-03-19T18:42:04;94462.81;;;3.65;35.71
45129;BME280;35512;56.312;101.728;2023-03-19T18:44:32;94464.13;;;3.45;36.17
45129;BME280;35512;56.312;101.728;2023-03-19T18:47:01;94473.88;;;3.30;36.25
45129;BME280;35512;56.312;101.728;2023-03-19T18:49:31;94479.75;;;3.12;36.25
45129;BME280;35512;56.312;101.728;2023-03-19T18:52:00;94488.44;;;3.06;36.38
45129;BME280;35512;56.312;101.728;2023-03-19T18:54:31;94491.72;;;2.95;37.22
45129;BME280;35512;56.312;101.728;2023-03-19T18:57:00;94501.50;;;2.87;37.55
45129;BME280;35512;56.312;101.728;2023-03-19T18:59:31;94504.53;;;2.86;37.86
45129;BME280;35512;56.312;101.728;2023-03-19T19:04:55;94497.03;;;2.68;38.45
45129;BME280;35512;56.312;101.728;2023-03-19T19:07:24;94515.69;;;2.68;38.86
45129;BME280;35512;56.312;101.728;2023-03-19T19:09:53;94524.03;;;2.63;38.94
45129;BME280;35512;56.312;101.728;2023-03-19T19:12:23;94520.81;;;2.54;39.71